Time;durP1;ratioP1;P1;durP2;ratioP2;P2;SDS_P1;SDS_P2;PMS_P1;PMS_P2;Temp;Humidity;BMP_temperature;BMP_pressure;BME280_temperature;BME280_humidity;BME280_pressure;Samples;Min_cycle;Max_cycle;Signal;HPM_P1;HPM_P2
2023/10/10 00:04:50;;;;;;;12.85;11.52;;;;;;;;;;12696267;23;20027;-70
2023/10/10 00:09:47;;;;;;;15.00;12.27;;;;;;;;;;12695257;23;20520;-70
2023/10/10 00:14:44;;;;;;;14.43;12.05;;;;;;;;;;12695789;23;20016;-70
2023/10/10 00:19:45;;;;;;;15.40;13.05;;;;;;;;;;12694188;23;20077;-71
2023/10/10 00:24:41;;;;;;;14.82;13.48;;;;;;;;;;12692765;23;20497;-70
2023/10/10 00:29:42;;;;;;;14.55;13.05;;;;;;;;;;12695023;23;20020;-68
2023/10/10 00:34:38;;;;;;;16.35;14.15;;;;;;;;;;12693306;23;20665;-68
2023/10/10 00:39:36;;;;;;;19.35;14.38;;;;;;;;;;12694026;23;20016;-68
2023/10/10 00:44:37;;;;;;;16.23;13.55;;;;;;;;;;12695130;23;20032;-69
2023/10/10 00:49:36;;;;;;;17.45;15.90;;;;;;;;;;12693459;23;20039;-69
2023/10/10 00:54:39;;;;;;;16.60;15.02;;;;;;;;;;12695249;23;20054;-69
2023/10/10 00:59:42;;;;;;;18.40;16.25;;;;;;;;;;12694355;23;20086;-68
2023/10/10 01:04:39;;;;;;;16.85;15.05;;;;;;;;;;12694485;23;20082;-69
2023/10/10 01:09:40;;;;;;;20.20;17.45;;;;;;;;;;12694848;23;20186;-69
2023/10/10 01:14:38;;;;;;;19.85;17.85;;;;;;;;;;12694037;23;20066;-69
2023/10/10 01:19:35;;;;;;;21.45;18.70;;;;;;;;;;12695095;23;20486;-69
2023/10/10 01:24:31;;;;;;;20.50;18.50;;;;;;;;;;12692861;23;20409;-68
2023/10/10 01:29:28;;;;;;;21.77;19.40;;;;;;;;;;12686257;23;20031;-69
2023/10/10 01:34:31;;;;;;;23.83;19.13;;;;;;;;;;12694771;23;20032;-69
2023/10/10 01:39:35;;;;;;;21.45;19.25;;;;;;;;;;12696462;23;20675;-70
2023/10/10 01:44:32;;;;;;;24.17;19.23;;;;;;;;;;12697476;23;20055;-69
2023/10/10 01:49:31;;;;;;;21.92;19.50;;;;;;;;;;12696778;23;20466;-69
2023/10/10 01:54:41;;;;;;;21.35;19.20;;;;;;;;;;12697403;23;20466;-68
2023/10/10 01:59:38;;;;;;;22.15;18.10;;;;;;;;;;12692136;23;20054;-69
2023/10/10 02:04:36;;;;;;;22.40;20.10;;;;;;;;;;12697688;23;20020;-68
2023/10/10 02:09:40;;;;;;;24.67;22.00;;;;;;;;;;12698263;23;20094;-68
2023/10/10 02:14:36;;;;;;;28.40;23.80;;;;;;;;;;12696508;23;20362;-69
2023/10/10 02:19:39;;;;;;;27.40;24.50;;;;;;;;;;12697784;23;20048;-70
2023/10/10 02:34:30;;;;;;;30.08;25.05;;;;;;;;;;12693932;23;20024;-68
2023/10/10 02:39:31;;;;;;;29.30;25.50;;;;;;;;;;12698395;23;20027;-68
2023/10/10 02:59:30;;;;;;;28.02;24.63;;;;;;;;;;12696588;23;20108;-68
2023/10/10 03:20:49;;;;;;;27.17;24.45;;;;;;;;;;12697368;23;20054;-68
2023/10/10 03:25:53;;;;;;;27.23;24.30;;;;;;;;;;12694386;23;20524;-69
2023/10/10 03:31:04;;;;;;;30.40;24.15;;;;;;;;;;12694116;23;20050;-70
2023/10/10 03:36:22;;;;;;;27.38;24.52;;;;;;;;;;12695384;23;20024;-70
2023/10/10 05:28:00;;;;;;;35.97;24.40;;;;;;;;;;12637072;22;20554;-72
2023/10/10 05:33:04;;;;;;;31.88;24.75;;;;;;;;;;12691057;22;20027;-73
2023/10/10 05:38:01;;;;;;;37.00;23.67;;;;;;;;;;12691994;23;20024;-73
2023/10/10 05:48:09;;;;;;;39.38;25.13;;;;;;;;;;12690672;22;20020;-72
2023/10/10 05:58:35;;;;;;;37.00;26.77;;;;;;;;;;12663993;22;20020;-72
2023/10/10 06:14:37;;;;;;;44.10;26.47;;;;;;;;;;12699491;22;20023;-72
2023/10/10 06:24:44;;;;;;;40.30;25.15;;;;;;;;;;12694577;22;20379;-72
2023/10/10 06:35:13;;;;;;;46.80;26.83;;;;;;;;;;12717027;22;20019;-72
2023/10/10 06:40:09;;;;;;;48.05;27.55;;;;;;;;;;12821422;22;20062;-72
2023/10/10 06:45:10;;;;;;;48.65;28.35;;;;;;;;;;12821511;22;20089;-72
2023/10/10 07:24:56;;;;;;;44.70;26.77;;;;;;;;;;12718096;22;20019;-73
2023/10/10 07:48:20;;;;;;;40.63;26.23;;;;;;;;;;12695127;23;20004;-73
2023/10/10 07:52:49;;;;;;;40.40;23.95;;;;;;;;;;12693228;22;20023;-73
2023/10/10 07:57:59;;;;;;;41.55;25.75;;;;;;;;;;12668250;23;20020;-73
2023/10/10 08:14:49;;;;;;;38.17;26.27;;;;;;;;;;12687337;22;20016;-73
2023/10/10 08:19:51;;;;;;;31.20;25.58;;;;;;;;;;12695318;22;20044;-73
2023/10/10 08:24:47;;;;;;;33.53;24.15;;;;;;;;;;12692025;23;20058;-73
2023/10/10 08:30:13;;;;;;;36.28;24.80;;;;;;;;;;12693822;22;20038;-73
2023/10/10 08:35:10;;;;;;;32.45;22.90;;;;;;;;;;12690128;23;20200;-73
2023/10/10 08:40:17;;;;;;;25.85;21.88;;;;;;;;;;12666642;22;20031;-73
2023/10/10 08:45:22;;;;;;;25.88;18.92;;;;;;;;;;12691126;23;20030;-73
2023/10/10 08:55:34;;;;;;;18.77;16.90;;;;;;;;;;12755793;22;20094;-73
2023/10/10 09:00:35;;;;;;;20.83;15.75;;;;;;;;;;12755766;22;20015;-73
2023/10/10 09:05:32;;;;;;;19.08;17.17;;;;;;;;;;12755364;22;20360;-73
2023/10/10 09:16:17;;;;;;;20.10;15.55;;;;;;;;;;12687487;22;20016;-73
2023/10/10 09:21:18;;;;;;;17.05;15.45;;;;;;;;;;12693887;22;20028;-73
2023/10/10 09:31:26;;;;;;;16.65;14.52;;;;;;;;;;12692625;22;20055;-73
2023/10/10 09:36:29;;;;;;;17.15;15.30;;;;;;;;;;12692983;23;20378;-73
2023/10/10 09:47:36;;;;;;;16.42;14.18;;;;;;;;;;12686319;23;20020;-73
2023/10/10 09:58:47;;;;;;;15.25;13.88;;;;;;;;;;12657503;23;20095;-73
2023/10/10 10:03:55;;;;;;;14.10;12.80;;;;;;;;;;12589848;23;20055;-73
2023/10/10 10:09:14;;;;;;;13.85;12.52;;;;;;;;;;12635902;23;20036;-73
2023/10/10 10:14:36;;;;;;;15.27;13.75;;;;;;;;;;12644915;22;20086;-73
2023/10/10 10:24:46;;;;;;;13.65;12.27;;;;;;;;;;12636034;22;20038;-73
2023/10/10 10:29:48;;;;;;;15.10;13.35;;;;;;;;;;12703219;22;20365;-73
2023/10/10 10:34:48;;;;;;;;;;;;;;;;;;12760498;22;20074;-73
2023/10/10 10:56:47;;;;;;;12.80;11.50;;;;;;;;;;12696330;23;20024;-73
2023/10/10 11:01:52;;;;;;;13.98;11.57;;;;;;;;;;12696367;22;20024;-74
2023/10/10 11:06:50;;;;;;;12.77;10.02;;;;;;;;;;12696022;23;20020;-74
2023/10/10 11:12:13;;;;;;;10.82;9.75;;;;;;;;;;12656651;22;20082;-74
2023/10/10 11:17:17;;;;;;;12.02;10.93;;;;;;;;;;12669152;23;20366;-73
2023/10/10 11:22:38;;;;;;;11.38;10.32;;;;;;;;;;12695646;22;20043;-74
2023/10/10 11:27:35;;;;;;;11.52;10.55;;;;;;;;;;12695924;23;20024;-73
2023/10/10 12:00:35;;;;;;;9.30;8.35;;;;;;;;;;12693651;22;20020;-73
2023/10/10 12:15:40;;;;;;;8.10;7.50;;;;;;;;;;12691155;22;20671;-73
2023/10/10 12:26:10;;;;;;;9.10;8.20;;;;;;;;;;12688778;22;20024;-73
2023/10/10 12:31:08;;;;;;;10.13;8.43;;;;;;;;;;12693874;22;20078;-73
2023/10/10 12:36:09;;;;;;;9.63;8.60;;;;;;;;;;12695660;23;20107;-73
2023/10/10 12:41:05;;;;;;;11.05;8.18;;;;;;;;;;12668237;22;20369;-74
2023/10/10 12:46:02;;;;;;;8.68;7.88;;;;;;;;;;12694872;23;20020;-73
2023/10/10 13:02:02;;;;;;;8.80;7.60;;;;;;;;;;12678142;22;20020;-73
2023/10/10 13:07:16;;;;;;;10.27;9.27;;;;;;;;;;12690103;22;20087;-73
2023/10/10 13:33:44;;;;;;;10.73;9.77;;;;;;;;;;12707489;22;20015;-73
2023/10/10 13:38:33;;;;;;;11.10;10.10;;;;;;;;;;12818064;22;20080;-73
2023/10/10 13:59:12;;;;;;;14.20;12.55;;;;;;;;;;12683703;22;20028;-72
2023/10/10 14:04:23;;;;;;;14.07;12.88;;;;;;;;;;12697983;22;20732;-72
2023/10/10 14:09:24;;;;;;;13.57;12.27;;;;;;;;;;12698355;23;20482;-73
2023/10/10 14:14:21;;;;;;;15.85;12.63;;;;;;;;;;12697870;23;20020;-73
2023/10/10 14:19:17;;;;;;;13.68;12.40;;;;;;;;;;12698375;23;20435;-72
2023/10/10 14:24:13;;;;;;;14.27;12.88;;;;;;;;;;12697508;22;20370;-73
2023/10/10 14:29:13;;;;;;;14.82;13.23;;;;;;;;;;12696445;23;20486;-72
2023/10/10 14:34:15;;;;;;;14.25;12.73;;;;;;;;;;12698381;22;20078;-73
2023/10/10 14:39:31;;;;;;;;;;;;;;;;;;12697331;23;20069;-72
2023/10/10 14:44:29;;;;;;;18.13;16.25;;;;;;;;;;12697573;23;19994;-72
2023/10/10 14:49:31;;;;;;;16.35;14.73;;;;;;;;;;12697439;22;20340;-72
2023/10/10 14:54:28;;;;;;;16.95;14.88;;;;;;;;;;12696132;23;20028;-73
2023/10/10 14:59:25;;;;;;;18.63;16.13;;;;;;;;;;12696435;22;20026;-74
2023/10/10 15:04:22;;;;;;;19.77;17.88;;;;;;;;;;12697093;23;20364;-73
2023/10/10 15:09:23;;;;;;;22.02;17.65;;;;;;;;;;12696851;23;20507;-73
2023/10/10 15:14:21;;;;;;;25.90;19.43;;;;;;;;;;12697077;23;20599;-74
2023/10/10 15:19:17;;;;;;;22.17;19.65;;;;;;;;;;12691415;23;20031;-74
2023/10/10 15:24:15;;;;;;;27.52;20.95;;;;;;;;;;12696734;22;20107;-74
2023/10/10 15:29:12;;;;;;;27.60;22.60;;;;;;;;;;12670301;23;20032;-74
2023/10/10 15:34:13;;;;;;;28.15;23.00;;;;;;;;;;12695879;22;20020;-75
2023/10/10 15:39:10;;;;;;;29.27;22.65;;;;;;;;;;12696220;23;20504;-76
2023/10/10 16:01:21;;;;;;;29.10;22.88;;;;;;;;;;12612668;23;20378;-74
2023/10/10 16:06:22;;;;;;;30.52;24.27;;;;;;;;;;12633804;23;20036;-75
2023/10/10 16:11:53;;;;;;;;;;;;;;;;;;;;;
2023/10/10 16:17:17;;;;;;;36.78;25.88;;;;;;;;;;12680515;23;20024;-74
2023/10/10 16:22:17;;;;;;;39.10;26.25;;;;;;;;;;12649772;22;20087;-73
2023/10/10 16:27:14;;;;;;;32.13;25.13;;;;;;;;;;12692976;23;20027;-73
2023/10/10 16:32:17;;;;;;;35.53;27.10;;;;;;;;;;12692477;22;20028;-73
2023/10/10 16:37:17;;;;;;;37.08;26.00;;;;;;;;;;12693706;23;20028;-74
2023/10/10 17:05:43;;;;;;;41.55;29.45;;;;;;;;;;12629994;23;20024;-74
2023/10/10 17:10:20;;;;;;;39.80;29.35;;;;;;;;;;12612013;23;20455;-74
2023/10/10 17:15:20;;;;;;;37.55;29.60;;;;;;;;;;12631926;23;20020;-74
2023/10/10 17:31:24;;;;;;;37.78;27.95;;;;;;;;;;12690175;22;20027;-73
2023/10/10 17:36:26;;;;;;;39.28;29.52;;;;;;;;;;12694742;23;20082;-73
2023/10/10 17:41:23;;;;;;;32.78;26.33;;;;;;;;;;12694710;22;20028;-73
2023/10/10 17:46:20;;;;;;;32.40;26.83;;;;;;;;;;12694833;23;20032;-73
2023/10/10 17:51:17;;;;;;;37.72;27.42;;;;;;;;;;12667457;22;20695;-73
2023/10/10 17:56:13;;;;;;;35.35;27.98;;;;;;;;;;12692576;23;20052;-73
2023/10/10 18:01:10;;;;;;;45.30;28.13;;;;;;;;;;12659854;22;20569;-73
2023/10/10 18:06:20;;;;;;;38.40;27.10;;;;;;;;;;12686005;23;20524;-73
2023/10/10 18:11:17;;;;;;;34.45;26.95;;;;;;;;;;12685319;22;20062;-72
2023/10/10 18:16:13;;;;;;;38.00;27.80;;;;;;;;;;12694514;23;20024;-74
2023/10/10 18:37:41;;;;;;;31.60;20.67;;;;;;;;;;12696084;23;20087;-73
2023/10/10 18:54:00;;;;;;;28.55;18.20;;;;;;;;;;12732198;22;20397;-73
2023/10/10 18:59:00;;;;;;;24.30;16.90;;;;;;;;;;12759673;22;20097;-73
2023/10/10 19:15:26;;;;;;;26.97;15.73;;;;;;;;;;12696161;22;20390;-73
2023/10/10 19:31:39;;;;;;;20.90;12.75;;;;;;;;;;12693252;23;20024;-73
2023/10/10 19:36:35;;;;;;;19.10;12.45;;;;;;;;;;12694452;23;20024;-73
2023/10/10 19:41:34;;;;;;;20.33;13.75;;;;;;;;;;12692405;23;20031;-73
2023/10/10 19:46:30;;;;;;;16.35;12.23;;;;;;;;;;12696372;23;20078;-72
2023/10/10 20:02:38;;;;;;;21.58;12.52;;;;;;;;;;12692374;22;20413;-69
2023/10/10 20:07:36;;;;;;;20.20;12.30;;;;;;;;;;12695306;23;20027;-68
2023/10/10 20:12:32;;;;;;;16.98;11.88;;;;;;;;;;12661015;23;20028;-68
2023/10/10 20:17:29;;;;;;;20.95;12.68;;;;;;;;;;12694159;23;20028;-67
2023/10/10 20:22:25;;;;;;;16.80;11.48;;;;;;;;;;12688343;22;20024;-67
2023/10/10 20:27:24;;;;;;;15.52;11.27;;;;;;;;;;12694553;23;20031;-69
2023/10/10 20:32:21;;;;;;;19.90;11.75;;;;;;;;;;12695006;22;20030;-68
2023/10/10 20:37:19;;;;;;;17.55;11.20;;;;;;;;;;12695214;23;20028;-68
2023/10/10 20:42:20;;;;;;;17.63;11.90;;;;;;;;;;12696008;22;20394;-66
2023/10/10 20:47:16;;;;;;;14.95;11.18;;;;;;;;;;12695635;23;20596;-66
2023/10/10 20:52:13;;;;;;;17.77;10.93;;;;;;;;;;12694991;22;20470;-66
2023/10/10 20:57:09;;;;;;;13.80;10.65;;;;;;;;;;12694756;23;20093;-66
2023/10/10 21:02:05;;;;;;;15.73;11.55;;;;;;;;;;12694494;22;20028;-66
2023/10/10 21:07:03;;;;;;;15.35;11.30;;;;;;;;;;12695265;23;20028;-65
2023/10/10 21:11:59;;;;;;;15.23;11.40;;;;;;;;;;12695184;22;20028;-67
2023/10/10 21:16:55;;;;;;;16.42;11.13;;;;;;;;;;12695788;23;20343;-67
2023/10/10 21:21:52;;;;;;;14.25;11.63;;;;;;;;;;12692367;22;20038;-67
2023/10/10 21:26:49;;;;;;;13.00;9.98;;;;;;;;;;12688414;22;20512;-67
2023/10/10 21:31:46;;;;;;;15.15;10.90;;;;;;;;;;12694599;22;20370;-67
2023/10/10 21:36:42;;;;;;;13.23;10.07;;;;;;;;;;12695580;23;20090;-67
2023/10/10 21:41:39;;;;;;;15.10;11.15;;;;;;;;;;12666948;22;20082;-66
2023/10/10 21:46:40;;;;;;;16.10;10.85;;;;;;;;;;12694220;23;20028;-66
2023/10/10 21:51:37;;;;;;;16.45;10.55;;;;;;;;;;12698854;22;20032;-66
2023/10/10 21:56:33;;;;;;;15.32;11.13;;;;;;;;;;12699501;23;20032;-66
2023/10/10 22:01:32;;;;;;;13.38;10.68;;;;;;;;;;12699639;22;20626;-66
2023/10/10 22:06:29;;;;;;;22.05;11.00;;;;;;;;;;12698509;23;20059;-67
2023/10/10 22:11:26;;;;;;;16.60;10.68;;;;;;;;;;12698729;22;20437;-65
2023/10/10 22:16:23;;;;;;;23.13;11.20;;;;;;;;;;12697690;23;20032;-65
2023/10/10 22:21:19;;;;;;;16.58;10.50;;;;;;;;;;12699299;22;20715;-66
2023/10/10 22:26:16;;;;;;;15.93;10.38;;;;;;;;;;12699301;23;20446;-66
2023/10/10 22:31:13;;;;;;;14.43;10.38;;;;;;;;;;12692658;22;20405;-66
2023/10/10 22:36:18;;;;;;;15.93;10.02;;;;;;;;;;12698161;23;20063;-66
2023/10/10 22:41:15;;;;;;;14.38;9.95;;;;;;;;;;12698907;22;20027;-66
2023/10/10 22:46:11;;;;;;;15.18;9.93;;;;;;;;;;12698541;23;20082;-67
2023/10/10 22:51:12;;;;;;;14.55;10.05;;;;;;;;;;12697530;22;20095;-66
2023/10/10 22:56:12;;;;;;;17.00;9.15;;;;;;;;;;12698492;23;20024;-66
2023/10/10 23:01:14;;;;;;;15.75;9.80;;;;;;;;;;12698314;22;20362;-66
2023/10/10 23:06:12;;;;;;;18.33;9.70;;;;;;;;;;12698484;23;20056;-65
2023/10/10 23:11:10;;;;;;;15.77;10.23;;;;;;;;;;12698157;22;20024;-65
2023/10/10 23:16:12;;;;;;;15.15;9.93;;;;;;;;;;12698413;23;20028;-65
2023/10/10 23:21:08;;;;;;;15.38;9.65;;;;;;;;;;12697613;22;20110;-65
2023/10/10 23:26:05;;;;;;;13.30;9.68;;;;;;;;;;12697942;23;20486;-65
2023/10/10 23:31:03;;;;;;;17.55;9.23;;;;;;;;;;12697647;22;20028;-66
2023/10/10 23:35:59;;;;;;;18.77;8.98;;;;;;;;;;12691753;22;20074;-66
2023/10/10 23:40:58;;;;;;;13.02;9.35;;;;;;;;;;12697206;22;20024;-68
2023/10/10 23:45:59;;;;;;;13.30;9.02;;;;;;;;;;12697954;23;20724;-68
2023/10/10 23:50:56;;;;;;;11.80;8.27;;;;;;;;;;12697449;22;20030;-68
2023/10/10 23:55:58;;;;;;;12.77;8.75;;;;;;;;;;12696559;23;20028;-67
